Terminal Aerodrome Forecast
Issued by NWS Dodge City, KS

Home | Current Version | Previous Version | Graphics & Text | Print | Product List | Glossary Off
Versions: 1 2 3 4 5 6 7 8 9 10 11 12 13

000
FTUS43 KDDC 220537
TAFDDC
TAF
KDDC 220537Z 2206/2306 01011KT 6SM -RA OVC040
     FM220800 36014G22KT P6SM OVC035
     FM222300 33012KT P6SM SKC
     FM230000 33008KT P6SM SKC
     FM230200 30007KT P6SM SKC
     FM230500 28005KT P6SM SKC=

USA.gov is the U.S. government's official web portal to all federal, state and local government web resources and services.